Time;durP1;ratioP1;P1;durP2;ratioP2;P2;SDS_P1;SDS_P2;PMS_P1;PMS_P2;Temp;Humidity;BMP_temperature;BMP_pressure;BME280_temperature;BME280_humidity;BME280_pressure;Samples;Min_cycle;Max_cycle;Signal;HPM_P1;HPM_P2
2022/04/07 00:03:45;;;;;;;4.22;3.15;;;;;;;;;;8304547;28;20254;-54
2022/04/07 00:07:45;;;;;;;4.68;2.97;;;;;;;;;;8304934;28;20032;-55
2022/04/07 00:11:45;;;;;;;5.30;3.35;;;;;;;;;;8305196;28;20547;-55
2022/04/07 00:15:45;;;;;;;2.90;2.60;;;;;;;;;;8306612;28;20052;-55
2022/04/07 00:19:46;;;;;;;3.75;2.85;;;;;;;;;;8303718;28;20402;-53
2022/04/07 00:23:46;;;;;;;3.55;2.63;;;;;;;;;;8305140;28;20036;-55
2022/04/07 00:27:46;;;;;;;5.77;3.10;;;;;;;;;;8303605;28;20074;-54
2022/04/07 00:31:55;;;;;;;2.90;2.50;;;;;;;;;;8302869;28;20041;-55
2022/04/07 00:35:55;;;;;;;3.40;2.50;;;;;;;;;;8305823;28;20361;-55
2022/04/07 00:39:56;;;;;;;3.13;2.50;;;;;;;;;;8304821;28;20028;-55
2022/04/07 00:43:56;;;;;;;2.67;2.15;;;;;;;;;;8304165;28;20280;-55
2022/04/07 00:47:58;;;;;;;3.97;2.33;;;;;;;;;;8304937;28;20043;-55
2022/04/07 00:51:58;;;;;;;2.55;2.03;;;;;;;;;;8296569;28;20692;-54
2022/04/07 00:56:00;;;;;;;2.63;2.20;;;;;;;;;;8280332;28;20029;-54
2022/04/07 01:00:01;;;;;;;3.33;1.90;;;;;;;;;;8294255;28;20280;-54
2022/04/07 01:04:02;;;;;;;4.43;2.30;;;;;;;;;;8328220;28;20190;-55
2022/04/07 01:08:02;;;;;;;2.35;2.10;;;;;;;;;;8329860;28;20033;-52
2022/04/07 01:12:02;;;;;;;2.38;2.00;;;;;;;;;;8328003;28;20437;-54
2022/04/07 01:16:03;;;;;;;3.00;2.15;;;;;;;;;;8329686;28;20028;-55
2022/04/07 01:20:04;;;;;;;2.72;2.08;;;;;;;;;;8326990;28;20480;-53
2022/04/07 01:24:05;;;;;;;4.35;2.40;;;;;;;;;;8326736;28;20024;-54
2022/04/07 01:28:06;;;;;;;2.42;1.92;;;;;;;;;;8326230;28;20025;-54
2022/04/07 01:32:44;;;;;;;2.40;2.13;;;;;;;;;;8324371;28;20193;-55
2022/04/07 01:36:46;;;;;;;2.53;2.22;;;;;;;;;;8210302;28;20100;-54
2022/04/07 01:40:47;;;;;;;2.67;2.47;;;;;;;;;;8263274;28;20465;-54
2022/04/07 01:44:48;;;;;;;2.70;2.47;;;;;;;;;;8330767;28;20020;-54
2022/04/07 01:48:50;;;;;;;2.60;2.40;;;;;;;;;;8326550;28;20037;-55
2022/04/07 01:52:50;;;;;;;2.95;2.40;;;;;;;;;;8326979;28;20028;-55
2022/04/07 01:56:50;;;;;;;2.50;2.13;;;;;;;;;;8328521;28;20619;-55
2022/04/07 02:00:51;;;;;;;2.28;2.00;;;;;;;;;;8327224;28;20075;-55
2022/04/07 02:04:55;;;;;;;2.03;1.92;;;;;;;;;;8326510;28;20118;-52
2022/04/07 02:08:56;;;;;;;;;;;;;;;;;;8326476;28;20490;-52
2022/04/07 02:12:56;;;;;;;1.70;1.60;;;;;;;;;;8327130;28;21589;-52
2022/04/07 02:16:56;;;;;;;2.00;1.90;;;;;;;;;;8325506;28;20048;-52
2022/04/07 02:20:56;;;;;;;2.00;1.83;;;;;;;;;;8328310;28;22235;-52
2022/04/07 02:24:57;;;;;;;2.03;1.85;;;;;;;;;;8327320;28;20301;-52
2022/04/07 02:28:57;;;;;;;1.60;1.50;;;;;;;;;;8328125;28;20112;-52
2022/04/07 02:32:57;;;;;;;2.80;1.50;;;;;;;;;;8326229;28;20061;-51
2022/04/07 02:36:57;;;;;;;1.95;1.77;;;;;;;;;;8327902;28;20461;-53
2022/04/07 02:40:58;;;;;;;3.00;1.70;;;;;;;;;;8326886;28;20035;-50
2022/04/07 02:44:58;;;;;;;3.08;2.00;;;;;;;;;;8326919;28;20038;-52
2022/04/07 02:48:58;;;;;;;2.67;2.00;;;;;;;;;;8324462;28;20618;-52
2022/04/07 02:52:58;;;;;;;2.53;1.87;;;;;;;;;;8327555;28;20028;-52
2022/04/07 02:56:59;;;;;;;2.57;1.83;;;;;;;;;;8326156;28;20029;-51
2022/04/07 03:00:59;;;;;;;3.55;1.77;;;;;;;;;;8325786;28;20303;-52
2022/04/07 03:04:59;;;;;;;1.63;1.40;;;;;;;;;;8327778;28;20455;-51
2022/04/07 03:08:59;;;;;;;1.40;1.30;;;;;;;;;;8325190;28;20438;-52
2022/04/07 03:12:59;;;;;;;2.25;1.60;;;;;;;;;;8325376;28;20018;-52
2022/04/07 03:17:00;;;;;;;1.48;1.30;;;;;;;;;;8324539;28;20035;-52
2022/04/07 03:21:00;;;;;;;2.90;1.60;;;;;;;;;;8325864;28;20518;-51
2022/04/07 03:25:00;;;;;;;1.63;1.50;;;;;;;;;;8327787;28;20266;-52
2022/04/07 03:29:00;;;;;;;2.13;1.60;;;;;;;;;;8331760;28;20058;-52
2022/04/07 03:33:00;;;;;;;1.88;1.23;;;;;;;;;;8329159;28;20063;-53
2022/04/07 03:37:01;;;;;;;1.98;1.63;;;;;;;;;;8333526;28;20470;-52
2022/04/07 03:41:01;;;;;;;1.75;1.60;;;;;;;;;;8331800;28;20473;-52
2022/04/07 03:45:01;;;;;;;2.05;1.42;;;;;;;;;;8331186;28;20418;-52
2022/04/07 03:49:01;;;;;;;1.60;1.50;;;;;;;;;;8332346;28;20591;-52
2022/04/07 03:53:02;;;;;;;2.05;1.40;;;;;;;;;;8331045;28;20495;-51
2022/04/07 03:57:02;;;;;;;1.50;1.40;;;;;;;;;;8333794;28;20591;-53
2022/04/07 04:01:02;;;;;;;1.38;1.30;;;;;;;;;;8327767;28;20056;-53
2022/04/07 04:05:03;;;;;;;1.75;1.45;;;;;;;;;;8333215;28;20064;-53
2022/04/07 04:09:03;;;;;;;1.42;1.33;;;;;;;;;;8329626;28;20033;-53
2022/04/07 04:13:03;;;;;;;1.60;1.37;;;;;;;;;;8331820;28;20465;-53
2022/04/07 04:17:03;;;;;;;1.50;1.20;;;;;;;;;;8328145;28;20382;-53
2022/04/07 04:21:03;;;;;;;1.30;1.20;;;;;;;;;;8331116;28;20024;-53
2022/04/07 04:25:04;;;;;;;0.90;0.90;;;;;;;;;;8329885;28;20263;-53
2022/04/07 04:29:05;;;;;;;0.95;0.90;;;;;;;;;;8329971;28;20153;-53
2022/04/07 04:33:05;;;;;;;0.95;0.95;;;;;;;;;;8329612;28;20468;-53
2022/04/07 04:37:05;;;;;;;1.02;0.98;;;;;;;;;;8330586;28;20068;-54
2022/04/07 04:41:06;;;;;;;1.00;0.90;;;;;;;;;;8327502;28;20017;-53
2022/04/07 04:45:07;;;;;;;3.38;1.45;;;;;;;;;;8329702;28;20736;-53
2022/04/07 04:49:07;;;;;;;2.50;1.10;;;;;;;;;;8330250;28;20056;-53
2022/04/07 04:53:09;;;;;;;1.17;1.07;;;;;;;;;;8326683;28;20047;-53
2022/04/07 04:57:09;;;;;;;0.85;0.80;;;;;;;;;;8327297;28;20398;-53
2022/04/07 05:01:09;;;;;;;2.03;0.80;;;;;;;;;;8326835;28;20062;-53
2022/04/07 05:05:09;;;;;;;0.70;0.70;;;;;;;;;;8329591;28;20511;-54
2022/04/07 05:09:09;;;;;;;0.75;0.75;;;;;;;;;;8330690;28;20266;-54
2022/04/07 05:13:10;;;;;;;0.70;0.70;;;;;;;;;;8330206;28;20024;-54
2022/04/07 05:17:10;;;;;;;1.00;1.00;;;;;;;;;;8326892;28;20095;-53
2022/04/07 05:21:10;;;;;;;0.90;0.90;;;;;;;;;;8328154;28;20028;-53
2022/04/07 05:25:11;;;;;;;1.20;1.10;;;;;;;;;;8328856;28;20024;-53
2022/04/07 05:29:11;;;;;;;0.93;0.93;;;;;;;;;;8328635;28;20025;-54
2022/04/07 05:33:13;;;;;;;1.97;1.13;;;;;;;;;;8326408;28;20048;-56
2022/04/07 05:37:13;;;;;;;1.15;0.95;;;;;;;;;;8331402;28;20251;-54
2022/04/07 05:41:13;;;;;;;1.60;1.25;;;;;;;;;;8334047;28;20116;-55
2022/04/07 05:45:13;;;;;;;1.95;1.33;;;;;;;;;;8329437;28;20025;-54
2022/04/07 05:49:14;;;;;;;1.52;1.10;;;;;;;;;;8328899;28;20021;-55
2022/04/07 05:53:14;;;;;;;2.35;1.38;;;;;;;;;;8311037;28;20029;-55
2022/04/07 05:57:15;;;;;;;2.05;1.00;;;;;;;;;;8325825;28;20025;-55
2022/04/07 06:01:17;;;;;;;1.63;1.00;;;;;;;;;;8307448;28;20044;-54
2022/04/07 06:05:19;;;;;;;1.00;0.95;;;;;;;;;;8328422;28;20021;-54
2022/04/07 06:09:19;;;;;;;1.17;0.95;;;;;;;;;;8333498;28;20523;-54
2022/04/07 06:13:19;;;;;;;1.80;0.80;;;;;;;;;;8330794;28;20410;-54
2022/04/07 06:17:20;;;;;;;2.90;0.80;;;;;;;;;;8324987;28;20037;-54
2022/04/07 06:21:23;;;;;;;1.17;0.80;;;;;;;;;;8327469;28;20029;-54
2022/04/07 06:25:23;;;;;;;1.40;0.70;;;;;;;;;;8328047;28;20029;-54
2022/04/07 06:29:24;;;;;;;1.67;0.70;;;;;;;;;;8328279;28;20541;-55
2022/04/07 06:33:24;;;;;;;2.58;0.80;;;;;;;;;;8326673;28;20136;-55
2022/04/07 06:37:24;;;;;;;1.45;0.60;;;;;;;;;;8325950;28;21053;-55
2022/04/07 06:41:25;;;;;;;0.63;0.50;;;;;;;;;;8327936;28;20727;-54
2022/04/07 06:45:25;;;;;;;0.73;0.40;;;;;;;;;;8326263;28;20029;-55
2022/04/07 06:49:25;;;;;;;1.58;0.50;;;;;;;;;;8327243;28;20036;-55
2022/04/07 06:53:26;;;;;;;0.43;0.43;;;;;;;;;;8324834;28;20064;-55
2022/04/07 06:57:26;;;;;;;0.77;0.55;;;;;;;;;;8326496;28;20415;-55
2022/04/07 07:01:26;;;;;;;0.32;0.32;;;;;;;;;;8328061;28;20926;-54
2022/04/07 07:05:27;;;;;;;0.40;0.40;;;;;;;;;;8333905;28;20119;-54
2022/04/07 07:09:27;;;;;;;0.40;0.40;;;;;;;;;;8333828;28;20271;-54
2022/04/07 07:13:27;;;;;;;1.42;0.52;;;;;;;;;;8331862;28;20191;-55
2022/04/07 07:17:33;;;;;;;1.63;0.50;;;;;;;;;;8331652;28;20040;-55
2022/04/07 07:21:33;;;;;;;0.50;0.50;;;;;;;;;;8333961;28;20025;-55
2022/04/07 07:25:34;;;;;;;0.60;0.60;;;;;;;;;;8333126;28;20109;-52
2022/04/07 07:29:34;;;;;;;0.60;0.60;;;;;;;;;;8330645;28;20068;-55
2022/04/07 07:33:34;;;;;;;0.40;0.40;;;;;;;;;;8331567;28;20576;-54
2022/04/07 07:37:35;;;;;;;0.40;0.40;;;;;;;;;;8332716;28;20098;-55
2022/04/07 07:41:38;;;;;;;1.05;0.50;;;;;;;;;;8331090;28;20112;-55
2022/04/07 07:45:38;;;;;;;0.43;0.43;;;;;;;;;;8330570;28;20485;-55
2022/04/07 07:49:38;;;;;;;0.93;0.60;;;;;;;;;;8329383;28;20140;-56
2022/04/07 07:53:38;;;;;;;0.40;0.40;;;;;;;;;;8331185;28;20032;-54
2022/04/07 07:57:39;;;;;;;0.40;0.40;;;;;;;;;;8331365;28;20557;-56
2022/04/07 08:01:39;;;;;;;0.65;0.50;;;;;;;;;;8329869;28;20036;-54
2022/04/07 08:05:39;;;;;;;2.70;0.50;;;;;;;;;;8329624;28;20117;-54
2022/04/07 08:09:40;;;;;;;0.47;0.47;;;;;;;;;;8329759;28;20139;-54
2022/04/07 08:13:40;;;;;;;0.90;0.50;;;;;;;;;;8329525;28;20299;-54
2022/04/07 08:17:40;;;;;;;0.50;0.50;;;;;;;;;;8329296;28;20036;-54
2022/04/07 08:21:41;;;;;;;0.40;0.40;;;;;;;;;;8312429;28;20112;-55
2022/04/07 08:25:41;;;;;;;0.40;0.40;;;;;;;;;;8329893;28;20565;-55
2022/04/07 08:29:41;;;;;;;0.43;0.40;;;;;;;;;;8330783;28;20039;-54
2022/04/07 08:33:41;;;;;;;1.35;0.63;;;;;;;;;;8330543;28;20138;-55
2022/04/07 08:37:42;;;;;;;0.50;0.50;;;;;;;;;;8330992;28;20034;-53
2022/04/07 08:41:44;;;;;;;0.40;0.40;;;;;;;;;;8329837;28;20287;-54
2022/04/07 08:45:44;;;;;;;2.63;0.50;;;;;;;;;;8330219;28;20032;-54
2022/04/07 08:49:46;;;;;;;0.80;0.40;;;;;;;;;;8328909;28;20033;-55
2022/04/07 08:53:46;;;;;;;0.85;0.55;;;;;;;;;;8329746;28;20647;-54
2022/04/07 08:57:46;;;;;;;0.40;0.40;;;;;;;;;;8329684;28;20028;-54
2022/04/07 09:01:47;;;;;;;0.55;0.40;;;;;;;;;;8327686;28;20669;-55
2022/04/07 09:05:57;;;;;;;0.40;0.40;;;;;;;;;;8328397;28;20269;-54
2022/04/07 09:09:59;;;;;;;0.45;0.45;;;;;;;;;;8330073;28;20272;-55
2022/04/07 09:13:59;;;;;;;0.43;0.43;;;;;;;;;;8327431;28;20036;-54
2022/04/07 09:18:00;;;;;;;0.40;0.40;;;;;;;;;;8329064;28;20133;-54
2022/04/07 09:22:11;;;;;;;0.50;0.50;;;;;;;;;;8326842;28;20667;-53
2022/04/07 09:26:12;;;;;;;0.55;0.55;;;;;;;;;;8326159;28;20021;-54
2022/04/07 09:30:12;;;;;;;0.73;0.73;;;;;;;;;;8330093;28;20135;-54
2022/04/07 09:34:13;;;;;;;1.02;0.65;;;;;;;;;;8326761;28;20068;-54
2022/04/07 09:38:23;;;;;;;0.40;0.40;;;;;;;;;;8328845;28;20033;-53
2022/04/07 09:42:27;;;;;;;0.45;0.40;;;;;;;;;;8327439;28;20043;-54
2022/04/07 09:46:35;;;;;;;0.85;0.45;;;;;;;;;;8326655;28;20143;-55
2022/04/07 09:50:36;;;;;;;0.57;0.50;;;;;;;;;;8326477;28;20024;-55
2022/04/07 09:54:39;;;;;;;0.73;0.60;;;;;;;;;;8325800;28;20021;-55
2022/04/07 09:58:39;;;;;;;0.30;0.30;;;;;;;;;;8327278;28;20114;-55
2022/04/07 10:02:40;;;;;;;0.30;0.30;;;;;;;;;;8326655;28;20084;-56
2022/04/07 10:06:42;;;;;;;0.38;0.38;;;;;;;;;;8328726;28;20442;-56
2022/04/07 10:10:43;;;;;;;0.50;0.40;;;;;;;;;;8324861;28;20231;-55
2022/04/07 10:14:44;;;;;;;0.32;0.32;;;;;;;;;;8327610;28;20307;-56
2022/04/07 10:18:55;;;;;;;0.40;0.40;;;;;;;;;;8307013;28;20043;-56
2022/04/07 10:22:55;;;;;;;0.40;0.40;;;;;;;;;;8326342;28;20037;-55
2022/04/07 10:26:58;;;;;;;0.40;0.40;;;;;;;;;;8327060;28;20031;-55
2022/04/07 10:30:59;;;;;;;1.30;0.50;;;;;;;;;;8323922;28;21070;-56
2022/04/07 10:34:59;;;;;;;0.45;0.45;;;;;;;;;;8326725;28;20336;-55
2022/04/07 10:38:59;;;;;;;0.70;0.50;;;;;;;;;;8333515;28;20485;-55
2022/04/07 10:43:10;;;;;;;0.40;0.40;;;;;;;;;;8331391;28;20078;-55
2022/04/07 10:47:10;;;;;;;0.30;0.30;;;;;;;;;;8327689;28;20037;-55
2022/04/07 10:51:11;;;;;;;1.02;0.47;;;;;;;;;;8328893;28;20090;-56
2022/04/07 10:55:12;;;;;;;0.40;0.40;;;;;;;;;;8333244;28;20021;-56
2022/04/07 10:59:12;;;;;;;0.40;0.40;;;;;;;;;;8332374;28;20541;-55
2022/04/07 11:03:14;;;;;;;0.40;0.40;;;;;;;;;;8332045;28;20147;-55
2022/04/07 11:07:15;;;;;;;0.40;0.40;;;;;;;;;;8340737;28;20123;-55
2022/04/07 11:11:35;;;;;;;0.30;0.30;;;;;;;;;;8317786;28;20078;-55
2022/04/07 11:15:48;;;;;;;1.65;0.50;;;;;;;;;;8327765;28;20458;-55
2022/04/07 11:19:51;;;;;;;0.40;0.40;;;;;;;;;;8330922;28;20028;-55
2022/04/07 11:23:52;;;;;;;0.30;0.30;;;;;;;;;;8311744;28;20302;-55
2022/04/07 11:28:10;;;;;;;0.45;0.40;;;;;;;;;;8316753;28;20017;-54
2022/04/07 11:32:10;;;;;;;0.50;0.50;;;;;;;;;;8330431;28;20075;-55
2022/04/07 11:36:11;;;;;;;0.43;0.43;;;;;;;;;;8329303;28;20025;-55
2022/04/07 11:40:11;;;;;;;0.40;0.40;;;;;;;;;;8331249;28;20024;-55
2022/04/07 11:44:12;;;;;;;0.30;0.30;;;;;;;;;;8330635;28;20017;-55
2022/04/07 11:48:12;;;;;;;0.40;0.40;;;;;;;;;;8327737;28;20044;-55
2022/04/07 11:52:12;;;;;;;0.43;0.40;;;;;;;;;;8329456;28;20146;-54
2022/04/07 11:56:13;;;;;;;0.40;0.40;;;;;;;;;;8330061;28;20112;-55
2022/04/07 12:00:14;;;;;;;0.47;0.40;;;;;;;;;;8328670;28;20215;-55
2022/04/07 12:04:14;;;;;;;0.40;0.40;;;;;;;;;;8331142;28;20031;-53
2022/04/07 12:08:15;;;;;;;0.68;0.35;;;;;;;;;;8329090;28;20036;-53
2022/04/07 12:12:16;;;;;;;0.35;0.35;;;;;;;;;;8327880;28;20022;-54
2022/04/07 12:16:17;;;;;;;0.40;0.40;;;;;;;;;;8333908;28;20685;-54
2022/04/07 12:20:21;;;;;;;0.40;0.40;;;;;;;;;;8332934;28;20406;-55
2022/04/07 12:24:21;;;;;;;;;;;;;;;;;;8330706;28;20024;-54
2022/04/07 12:28:21;;;;;;;0.40;0.40;;;;;;;;;;8328024;28;20408;-54
2022/04/07 12:32:21;;;;;;;0.40;0.40;;;;;;;;;;8326014;28;20155;-55
2022/04/07 12:36:29;;;;;;;0.35;0.35;;;;;;;;;;8329823;28;20697;-54
2022/04/07 12:40:29;;;;;;;1.55;0.40;;;;;;;;;;8327862;28;20025;-53
2022/04/07 12:44:30;;;;;;;0.63;0.40;;;;;;;;;;8314990;28;20074;-54
2022/04/07 12:48:30;;;;;;;0.40;0.40;;;;;;;;;;8326918;28;20326;-54
2022/04/07 12:52:37;;;;;;;0.50;0.45;;;;;;;;;;8328175;28;20035;-54
2022/04/07 12:56:39;;;;;;;0.40;0.40;;;;;;;;;;8329241;28;20024;-54
2022/04/07 13:00:39;;;;;;;2.83;0.60;;;;;;;;;;8328039;28;20036;-54
2022/04/07 13:04:54;;;;;;;2.97;0.50;;;;;;;;;;8325632;28;20040;-53
2022/04/07 13:08:54;;;;;;;2.97;0.70;;;;;;;;;;8327938;28;20263;-54
2022/04/07 13:12:54;;;;;;;1.43;0.53;;;;;;;;;;8326904;28;20125;-54
2022/04/07 13:16:54;;;;;;;1.13;0.47;;;;;;;;;;8328709;28;21167;-54
2022/04/07 13:20:54;;;;;;;1.00;0.60;;;;;;;;;;8326034;28;20096;-54
2022/04/07 13:24:55;;;;;;;0.52;0.35;;;;;;;;;;8327577;28;20079;-55
2022/04/07 13:28:55;;;;;;;0.32;0.32;;;;;;;;;;8326968;28;20577;-54
2022/04/07 13:32:55;;;;;;;0.82;0.50;;;;;;;;;;8325835;28;20033;-54
2022/04/07 13:36:55;;;;;;;0.80;0.57;;;;;;;;;;8328200;28;20136;-54
2022/04/07 13:40:56;;;;;;;1.10;0.40;;;;;;;;;;8325817;28;20024;-54
2022/04/07 13:44:56;;;;;;;0.50;0.50;;;;;;;;;;8327351;28;20040;-54
2022/04/07 13:48:56;;;;;;;0.40;0.30;;;;;;;;;;8326115;28;20280;-55
2022/04/07 13:52:57;;;;;;;0.73;0.50;;;;;;;;;;8324809;28;20029;-53
2022/04/07 13:56:57;;;;;;;0.47;0.47;;;;;;;;;;8327059;28;20735;-54
2022/04/07 14:00:58;;;;;;;0.50;0.50;;;;;;;;;;8323347;28;20443;-54
2022/04/07 14:04:58;;;;;;;0.50;0.50;;;;;;;;;;8327288;28;20271;-55
2022/04/07 14:08:58;;;;;;;1.75;0.50;;;;;;;;;;8328123;28;20118;-55
2022/04/07 14:12:58;;;;;;;1.38;0.47;;;;;;;;;;8324707;28;20040;-54
2022/04/07 14:16:59;;;;;;;0.90;0.60;;;;;;;;;;8324622;28;20071;-54
2022/04/07 14:20:59;;;;;;;1.40;0.50;;;;;;;;;;8324007;28;20059;-55
2022/04/07 14:24:59;;;;;;;1.52;0.60;;;;;;;;;;8327592;28;20147;-55
2022/04/07 14:28:59;;;;;;;0.50;0.50;;;;;;;;;;8315601;28;20148;-54
2022/04/07 14:32:59;;;;;;;2.08;0.70;;;;;;;;;;8319214;28;20581;-55
2022/04/07 14:37:00;;;;;;;1.92;0.73;;;;;;;;;;8326647;28;20020;-56
2022/04/07 14:41:00;;;;;;;1.83;0.65;;;;;;;;;;8323475;28;20072;-54
2022/04/07 14:45:00;;;;;;;2.10;0.63;;;;;;;;;;8326201;28;20233;-54
2022/04/07 14:49:00;;;;;;;1.75;0.80;;;;;;;;;;8325895;28;20131;-55
2022/04/07 14:53:01;;;;;;;1.20;0.70;;;;;;;;;;8313098;28;20921;-55
2022/04/07 14:57:01;;;;;;;2.15;0.70;;;;;;;;;;8324686;28;20016;-57
2022/04/07 15:01:01;;;;;;;2.15;0.90;;;;;;;;;;8321566;28;20037;-54
2022/04/07 15:05:01;;;;;;;3.28;1.00;;;;;;;;;;8322600;28;20037;-55
2022/04/07 15:09:03;;;;;;;1.45;0.90;;;;;;;;;;8324666;28;20032;-55
2022/04/07 15:13:03;;;;;;;2.15;0.90;;;;;;;;;;8322706;28;20055;-55
2022/04/07 15:17:03;;;;;;;2.33;1.00;;;;;;;;;;8304419;28;20151;-54
2022/04/07 15:21:04;;;;;;;8.23;1.30;;;;;;;;;;8324626;28;20452;-54
2022/04/07 15:25:06;;;;;;;6.43;1.13;;;;;;;;;;8327341;28;20263;-55
2022/04/07 15:29:06;;;;;;;5.57;2.03;;;;;;;;;;8330790;28;20056;-54
2022/04/07 15:33:06;;;;;;;5.10;1.40;;;;;;;;;;8331350;28;20040;-54
2022/04/07 15:37:06;;;;;;;1.50;0.98;;;;;;;;;;8330548;28;20028;-54
2022/04/07 15:41:08;;;;;;;3.53;1.10;;;;;;;;;;8331440;28;20079;-54
2022/04/07 15:45:08;;;;;;;5.00;1.52;;;;;;;;;;8332005;28;20024;-53
2022/04/07 15:49:08;;;;;;;3.97;1.23;;;;;;;;;;8329452;28;20035;-55
2022/04/07 15:53:09;;;;;;;7.70;1.17;;;;;;;;;;8330788;28;20095;-55
2022/04/07 15:57:09;;;;;;;4.32;1.50;;;;;;;;;;8330723;28;20522;-54
2022/04/07 16:01:09;;;;;;;4.10;1.55;;;;;;;;;;8328646;28;20049;-54
2022/04/07 16:05:09;;;;;;;4.28;1.35;;;;;;;;;;8324334;28;20033;-54
2022/04/07 16:09:09;;;;;;;4.47;1.27;;;;;;;;;;8330237;28;20131;-53
2022/04/07 16:13:10;;;;;;;3.78;1.23;;;;;;;;;;8330659;28;20290;-54
2022/04/07 16:17:10;;;;;;;5.37;1.83;;;;;;;;;;8326736;28;20916;-54
2022/04/07 16:21:10;;;;;;;5.10;1.42;;;;;;;;;;8332420;28;20279;-54
2022/04/07 16:25:10;;;;;;;4.38;1.30;;;;;;;;;;8336455;28;20573;-53
2022/04/07 16:29:11;;;;;;;5.35;1.17;;;;;;;;;;8328219;28;20171;-54
2022/04/07 16:33:13;;;;;;;6.38;1.30;;;;;;;;;;8327331;28;20041;-54
2022/04/07 16:37:13;;;;;;;6.68;1.20;;;;;;;;;;8330486;28;20337;-53
2022/04/07 16:41:13;;;;;;;7.03;1.30;;;;;;;;;;8327591;28;20052;-53
2022/04/07 16:45:13;;;;;;;4.03;1.33;;;;;;;;;;8326101;28;20278;-55
2022/04/07 16:49:13;;;;;;;3.50;1.25;;;;;;;;;;8329352;28;20572;-54
2022/04/07 16:53:14;;;;;;;4.65;1.40;;;;;;;;;;8327084;28;20024;-54
2022/04/07 16:57:17;;;;;;;2.53;1.05;;;;;;;;;;8331063;28;20792;-54
2022/04/07 17:01:18;;;;;;;5.90;1.53;;;;;;;;;;8331898;28;20734;-54
2022/04/07 17:05:18;;;;;;;9.32;1.67;;;;;;;;;;8295253;28;20083;-55
2022/04/07 17:09:18;;;;;;;5.80;1.37;;;;;;;;;;8296593;28;20033;-54
2022/04/07 17:13:19;;;;;;;5.00;1.40;;;;;;;;;;8295924;28;20732;-54
2022/04/07 17:17:19;;;;;;;4.37;1.17;;;;;;;;;;8294870;28;20416;-54
2022/04/07 17:21:19;;;;;;;3.60;0.85;;;;;;;;;;8292293;28;20260;-54
2022/04/07 17:25:20;;;;;;;6.10;1.17;;;;;;;;;;8290956;28;20196;-54
2022/04/07 17:29:20;;;;;;;4.72;1.63;;;;;;;;;;8295298;28;21157;-54
2022/04/07 17:33:20;;;;;;;6.18;1.42;;;;;;;;;;8292130;28;20041;-53
2022/04/07 17:37:21;;;;;;;6.65;1.20;;;;;;;;;;8293958;28;20029;-54
2022/04/07 17:41:21;;;;;;;3.00;0.98;;;;;;;;;;8292686;28;20024;-54
2022/04/07 17:45:21;;;;;;;4.77;1.10;;;;;;;;;;8295520;28;20037;-54
2022/04/07 17:49:21;;;;;;;2.60;0.90;;;;;;;;;;8293521;28;20033;-54
2022/04/07 17:53:22;;;;;;;5.10;1.30;;;;;;;;;;8287626;28;20037;-54
2022/04/07 17:57:23;;;;;;;4.75;1.38;;;;;;;;;;8291116;28;20063;-54
2022/04/07 18:01:23;;;;;;;2.80;0.95;;;;;;;;;;8289364;28;20040;-51
2022/04/07 18:05:23;;;;;;;3.25;0.90;;;;;;;;;;8288927;28;20037;-54
2022/04/07 18:09:23;;;;;;;5.75;1.00;;;;;;;;;;8292590;28;20025;-54
2022/04/07 18:13:24;;;;;;;3.90;1.00;;;;;;;;;;8289139;28;20561;-53
2022/04/07 18:17:24;;;;;;;5.40;1.08;;;;;;;;;;8290659;28;20355;-54
2022/04/07 18:21:25;;;;;;;8.32;1.52;;;;;;;;;;8287910;28;20116;-54
2022/04/07 18:25:25;;;;;;;6.88;1.55;;;;;;;;;;8289469;28;20516;-54
2022/04/07 18:29:26;;;;;;;7.03;1.30;;;;;;;;;;8290714;28;20025;-54
2022/04/07 18:33:26;;;;;;;4.22;1.33;;;;;;;;;;8289981;28;20103;-57
2022/04/07 18:37:26;;;;;;;5.57;1.23;;;;;;;;;;8291768;28;20778;-54
2022/04/07 18:41:27;;;;;;;2.67;1.10;;;;;;;;;;8289566;28;20226;-54
2022/04/07 18:45:27;;;;;;;5.53;1.25;;;;;;;;;;8291918;28;20042;-54
2022/04/07 18:49:28;;;;;;;8.10;1.27;;;;;;;;;;8297233;28;20025;-54
2022/04/07 18:53:28;;;;;;;2.10;0.97;;;;;;;;;;8296263;28;20299;-54
2022/04/07 18:57:28;;;;;;;5.28;1.08;;;;;;;;;;8299845;28;20291;-54
2022/04/07 19:01:30;;;;;;;4.55;0.85;;;;;;;;;;8304151;28;20044;-54
2022/04/07 19:05:30;;;;;;;6.40;1.40;;;;;;;;;;8304295;28;20061;-54
2022/04/07 19:09:31;;;;;;;4.13;1.52;;;;;;;;;;8305748;28;20670;-55
2022/04/07 19:13:31;;;;;;;5.65;1.60;;;;;;;;;;8303732;28;20033;-54
2022/04/07 19:17:31;;;;;;;4.80;1.17;;;;;;;;;;8304135;28;20033;-54
2022/04/07 19:21:31;;;;;;;5.38;1.42;;;;;;;;;;8302713;28;20021;-54
2022/04/07 19:25:31;;;;;;;5.60;1.27;;;;;;;;;;8304355;28;20109;-52
2022/04/07 19:29:32;;;;;;;3.78;1.13;;;;;;;;;;8303499;28;20025;-54
2022/04/07 19:33:32;;;;;;;5.78;1.20;;;;;;;;;;8303214;28;20395;-54
2022/04/07 19:37:33;;;;;;;2.40;0.93;;;;;;;;;;8303333;28;20018;-54
2022/04/07 19:41:35;;;;;;;8.23;1.50;;;;;;;;;;8301841;28;20028;-54
2022/04/07 19:45:36;;;;;;;7.55;1.45;;;;;;;;;;8303165;28;20481;-54
2022/04/07 19:49:37;;;;;;;4.70;1.17;;;;;;;;;;8303743;28;20021;-53
2022/04/07 19:53:37;;;;;;;3.50;1.10;;;;;;;;;;8303626;28;20033;-54
2022/04/07 19:57:38;;;;;;;7.07;1.52;;;;;;;;;;8303370;28;20044;-54
2022/04/07 20:01:39;;;;;;;5.63;1.50;;;;;;;;;;8302288;28;20079;-53
2022/04/07 20:05:40;;;;;;;6.88;1.58;;;;;;;;;;8303042;28;20033;-53
2022/04/07 20:09:40;;;;;;;7.93;1.50;;;;;;;;;;8303371;28;20029;-54
2022/04/07 20:13:40;;;;;;;4.60;1.20;;;;;;;;;;8301160;28;20437;-54
2022/04/07 20:17:41;;;;;;;5.18;1.30;;;;;;;;;;8300687;28;20030;-54
2022/04/07 20:21:42;;;;;;;7.13;1.15;;;;;;;;;;8301480;28;20071;-54
2022/04/07 20:25:43;;;;;;;4.28;1.10;;;;;;;;;;8301617;28;20414;-54
2022/04/07 20:29:44;;;;;;;3.70;1.00;;;;;;;;;;8302384;28;20203;-54
2022/04/07 20:33:44;;;;;;;6.32;2.03;;;;;;;;;;8301031;28;20916;-54
2022/04/07 20:37:46;;;;;;;6.80;1.60;;;;;;;;;;8301004;28;20035;-54
2022/04/07 20:41:46;;;;;;;6.07;1.35;;;;;;;;;;8302205;28;20025;-54
2022/04/07 20:45:46;;;;;;;6.25;1.52;;;;;;;;;;8301867;28;20034;-53
2022/04/07 20:49:48;;;;;;;6.55;1.20;;;;;;;;;;8300399;28;20117;-54
2022/04/07 20:53:48;;;;;;;7.57;1.63;;;;;;;;;;8295688;28;20087;-54
2022/04/07 20:57:49;;;;;;;7.17;1.43;;;;;;;;;;8298644;28;20079;-53
2022/04/07 21:01:49;;;;;;;7.88;1.60;;;;;;;;;;8295838;28;20302;-54
2022/04/07 21:05:49;;;;;;;6.57;1.30;;;;;;;;;;8297378;28;20033;-53
2022/04/07 21:09:49;;;;;;;4.45;1.30;;;;;;;;;;8300480;28;20029;-54
2022/04/07 21:13:49;;;;;;;3.75;1.10;;;;;;;;;;8292626;28;20021;-54
2022/04/07 21:17:49;;;;;;;6.68;1.30;;;;;;;;;;8292246;28;20033;-53
2022/04/07 21:21:50;;;;;;;4.68;1.52;;;;;;;;;;8295757;28;20030;-54
2022/04/07 21:25:50;;;;;;;5.43;1.30;;;;;;;;;;8299839;28;20025;-54
2022/04/07 21:29:51;;;;;;;6.80;1.48;;;;;;;;;;8297752;28;20415;-54
2022/04/07 21:33:51;;;;;;;7.38;1.77;;;;;;;;;;8296162;28;20041;-54
2022/04/07 21:37:51;;;;;;;10.15;1.33;;;;;;;;;;8299816;28;20036;-54
2022/04/07 21:41:52;;;;;;;4.07;1.30;;;;;;;;;;8296053;28;20029;-54
2022/04/07 21:45:53;;;;;;;6.75;1.73;;;;;;;;;;8291327;28;20527;-54
2022/04/07 21:49:53;;;;;;;5.40;1.45;;;;;;;;;;8294865;28;20025;-54
2022/04/07 21:53:58;;;;;;;4.18;1.25;;;;;;;;;;8300144;28;20845;-52
2022/04/07 21:57:59;;;;;;;7.68;1.63;;;;;;;;;;8300001;28;20033;-54
2022/04/07 22:01:59;;;;;;;8.40;1.35;;;;;;;;;;8299066;28;20118;-55
2022/04/07 22:05:59;;;;;;;7.78;1.30;;;;;;;;;;8302336;28;20041;-54
2022/04/07 22:09:59;;;;;;;5.95;1.38;;;;;;;;;;8302782;28;20060;-51
2022/04/07 22:14:00;;;;;;;4.22;1.15;;;;;;;;;;8301406;28;20402;-54
2022/04/07 22:18:00;;;;;;;5.03;1.60;;;;;;;;;;8301144;28;20045;-53
2022/04/07 22:22:00;;;;;;;5.75;1.30;;;;;;;;;;8302802;28;20139;-54
2022/04/07 22:26:01;;;;;;;6.30;1.47;;;;;;;;;;8303038;28;20126;-54
2022/04/07 22:30:01;;;;;;;8.37;1.67;;;;;;;;;;8303222;28;20266;-54
2022/04/07 22:34:01;;;;;;;9.57;1.60;;;;;;;;;;8304103;28;20280;-54
2022/04/07 22:38:01;;;;;;;8.38;1.50;;;;;;;;;;8309678;28;20026;-54
2022/04/07 22:42:02;;;;;;;11.13;1.83;;;;;;;;;;8307659;28;20030;-53
2022/04/07 22:46:02;;;;;;;9.52;1.60;;;;;;;;;;8306918;28;20280;-53
2022/04/07 22:50:07;;;;;;;5.85;1.50;;;;;;;;;;8309340;28;20028;-54
2022/04/07 22:54:07;;;;;;;6.68;1.17;;;;;;;;;;8308220;28;20025;-54
2022/04/07 22:58:07;;;;;;;9.93;1.52;;;;;;;;;;8306672;28;21334;-54
2022/04/07 23:02:07;;;;;;;7.93;1.65;;;;;;;;;;8304987;28;20037;-53
2022/04/07 23:06:08;;;;;;;5.80;1.30;;;;;;;;;;8305025;28;20032;-54
2022/04/07 23:10:08;;;;;;;6.63;1.50;;;;;;;;;;8307677;28;20064;-53
2022/04/07 23:14:08;;;;;;;5.55;1.52;;;;;;;;;;8308956;28;20042;-54
2022/04/07 23:18:11;;;;;;;2.72;1.13;;;;;;;;;;8306096;28;20037;-51
2022/04/07 23:22:11;;;;;;;8.90;1.58;;;;;;;;;;8307227;28;20504;-52
2022/04/07 23:26:12;;;;;;;4.97;1.75;;;;;;;;;;8308542;28;20142;-53
2022/04/07 23:30:12;;;;;;;5.60;1.20;;;;;;;;;;8304307;28;20053;-54
2022/04/07 23:34:13;;;;;;;8.13;1.80;;;;;;;;;;8308115;28;20747;-54
2022/04/07 23:38:13;;;;;;;6.45;1.60;;;;;;;;;;8307754;28;20282;-54
2022/04/07 23:42:14;;;;;;;8.35;1.30;;;;;;;;;;8306463;28;20116;-54
2022/04/07 23:46:16;;;;;;;9.55;1.67;;;;;;;;;;8308077;28;20068;-53
2022/04/07 23:50:16;;;;;;;2.78;1.10;;;;;;;;;;8305861;28;20029;-54
2022/04/07 23:54:16;;;;;;;10.77;1.75;;;;;;;;;;8307444;28;20478;-54
2022/04/07 23:58:17;;;;;;;8.15;1.67;;;;;;;;;;8306732;28;20433;-54
